sensor_id;sensor_type;location;lat;lon;timestamp;P1;durP1;ratioP1;P2;durP2;ratioP2
4027;SDS011;2028;51.346;12.396;2023-12-20T00:01:19;7.37;;;6.77;;
4027;SDS011;2028;51.346;12.396;2023-12-20T00:03:45;7.13;;;6.53;;
4027;SDS011;2028;51.346;12.396;2023-12-20T00:06:11;6.23;;;5.73;;
4027;SDS011;2028;51.346;12.396;2023-12-20T00:08:37;6.37;;;5.87;;
4027;SDS011;2028;51.346;12.396;2023-12-20T00:11:03;6.70;;;6.10;;
4027;SDS011;2028;51.346;12.396;2023-12-20T00:13:30;7.25;;;6.55;;
4027;SDS011;2028;51.346;12.396;2023-12-20T00:15:56;6.78;;;6.18;;
4027;SDS011;2028;51.346;12.396;2023-12-20T00:18:23;6.73;;;6.17;;
4027;SDS011;2028;51.346;12.396;2023-12-20T00:20:49;6.60;;;6.00;;
4027;SDS011;2028;51.346;12.396;2023-12-20T00:23:16;6.93;;;6.33;;
4027;SDS011;2028;51.346;12.396;2023-12-20T00:25:42;5.97;;;5.47;;
4027;SDS011;2028;51.346;12.396;2023-12-20T00:28:08;6.10;;;5.67;;
4027;SDS011;2028;51.346;12.396;2023-12-20T00:30:35;5.90;;;5.50;;
4027;SDS011;2028;51.346;12.396;2023-12-20T00:33:01;6.27;;;5.77;;
4027;SDS011;2028;51.346;12.396;2023-12-20T00:35:28;5.30;;;4.90;;
4027;SDS011;2028;51.346;12.396;2023-12-20T00:37:54;5.60;;;5.20;;
4027;SDS011;2028;51.346;12.396;2023-12-20T00:40:20;5.87;;;5.47;;
4027;SDS011;2028;51.346;12.396;2023-12-20T00:42:47;5.43;;;5.03;;
4027;SDS011;2028;51.346;12.396;2023-12-20T00:45:14;5.07;;;4.57;;
4027;SDS011;2028;51.346;12.396;2023-12-20T00:47:40;5.07;;;4.67;;
4027;SDS011;2028;51.346;12.396;2023-12-20T00:50:07;5.10;;;4.70;;
4027;SDS011;2028;51.346;12.396;2023-12-20T00:52:33;4.63;;;4.32;;
4027;SDS011;2028;51.346;12.396;2023-12-20T00:54:59;4.47;;;4.18;;
4027;SDS011;2028;51.346;12.396;2023-12-20T00:57:26;4.80;;;4.40;;
4027;SDS011;2028;51.346;12.396;2023-12-20T00:59:52;4.60;;;4.30;;
4027;SDS011;2028;51.346;12.396;2023-12-20T01:02:18;4.13;;;3.83;;
4027;SDS011;2028;51.346;12.396;2023-12-20T01:04:45;4.70;;;4.40;;
4027;SDS011;2028;51.346;12.396;2023-12-20T01:07:11;4.10;;;3.80;;
4027;SDS011;2028;51.346;12.396;2023-12-20T01:09:37;5.00;;;4.60;;
4027;SDS011;2028;51.346;12.396;2023-12-20T01:12:04;4.27;;;3.90;;
4027;SDS011;2028;51.346;12.396;2023-12-20T01:14:30;4.40;;;4.00;;
4027;SDS011;2028;51.346;12.396;2023-12-20T01:16:56;3.80;;;3.60;;
4027;SDS011;2028;51.346;12.396;2023-12-20T01:19:22;3.60;;;3.30;;
4027;SDS011;2028;51.346;12.396;2023-12-20T01:21:50;3.50;;;3.30;;
4027;SDS011;2028;51.346;12.396;2023-12-20T01:24:16;3.50;;;3.27;;
4027;SDS011;2028;51.346;12.396;2023-12-20T01:26:43;3.75;;;3.45;;
4027;SDS011;2028;51.346;12.396;2023-12-20T01:29:09;3.97;;;3.67;;
4027;SDS011;2028;51.346;12.396;2023-12-20T01:31:35;3.28;;;3.08;;
4027;SDS011;2028;51.346;12.396;2023-12-20T01:34:01;3.47;;;3.20;;
4027;SDS011;2028;51.346;12.396;2023-12-20T01:36:27;4.82;;;3.50;;
4027;SDS011;2028;51.346;12.396;2023-12-20T01:38:54;3.77;;;3.47;;
4027;SDS011;2028;51.346;12.396;2023-12-20T01:41:20;3.25;;;3.05;;
4027;SDS011;2028;51.346;12.396;2023-12-20T01:43:47;3.20;;;3.00;;
4027;SDS011;2028;51.346;12.396;2023-12-20T01:46:13;3.50;;;3.30;;
4027;SDS011;2028;51.346;12.396;2023-12-20T01:48:40;3.23;;;3.03;;
4027;SDS011;2028;51.346;12.396;2023-12-20T01:51:07;2.97;;;2.78;;
4027;SDS011;2028;51.346;12.396;2023-12-20T01:53:33;2.90;;;2.70;;
4027;SDS011;2028;51.346;12.396;2023-12-20T01:56:00;3.93;;;3.63;;
4027;SDS011;2028;51.346;12.396;2023-12-20T01:58:27;3.10;;;2.90;;
4027;SDS011;2028;51.346;12.396;2023-12-20T02:00:53;3.17;;;2.97;;
4027;SDS011;2028;51.346;12.396;2023-12-20T02:03:20;3.40;;;3.20;;
4027;SDS011;2028;51.346;12.396;2023-12-20T02:05:46;3.20;;;3.00;;
4027;SDS011;2028;51.346;12.396;2023-12-20T02:08:13;3.08;;;2.88;;
4027;SDS011;2028;51.346;12.396;2023-12-20T02:10:39;2.92;;;2.80;;
4027;SDS011;2028;51.346;12.396;2023-12-20T02:13:07;3.40;;;3.20;;
4027;SDS011;2028;51.346;12.396;2023-12-20T02:15:33;3.50;;;3.30;;
4027;SDS011;2028;51.346;12.396;2023-12-20T02:18:02;3.40;;;3.10;;
4027;SDS011;2028;51.346;12.396;2023-12-20T02:20:28;3.10;;;2.90;;
4027;SDS011;2028;51.346;12.396;2023-12-20T02:22:54;3.28;;;3.08;;
4027;SDS011;2028;51.346;12.396;2023-12-20T02:25:20;3.30;;;3.10;;
4027;SDS011;2028;51.346;12.396;2023-12-20T02:27:47;3.40;;;3.20;;
4027;SDS011;2028;51.346;12.396;2023-12-20T02:30:14;3.17;;;2.97;;
4027;SDS011;2028;51.346;12.396;2023-12-20T02:32:40;3.28;;;3.08;;
4027;SDS011;2028;51.346;12.396;2023-12-20T02:35:07;2.90;;;2.80;;
4027;SDS011;2028;51.346;12.396;2023-12-20T02:37:33;3.20;;;3.00;;
4027;SDS011;2028;51.346;12.396;2023-12-20T02:39:59;3.10;;;2.90;;
4027;SDS011;2028;51.346;12.396;2023-12-20T02:42:26;3.10;;;2.90;;
4027;SDS011;2028;51.346;12.396;2023-12-20T02:44:52;3.20;;;3.00;;
4027;SDS011;2028;51.346;12.396;2023-12-20T02:47:18;3.03;;;2.85;;
4027;SDS011;2028;51.346;12.396;2023-12-20T02:49:45;3.08;;;2.88;;
4027;SDS011;2028;51.346;12.396;2023-12-20T02:52:11;3.25;;;2.88;;
4027;SDS011;2028;51.346;12.396;2023-12-20T02:54:37;3.10;;;2.88;;
4027;SDS011;2028;51.346;12.396;2023-12-20T02:57:04;3.40;;;3.10;;
4027;SDS011;2028;51.346;12.396;2023-12-20T02:59:30;3.13;;;2.90;;
4027;SDS011;2028;51.346;12.396;2023-12-20T03:01:56;2.93;;;2.83;;
4027;SDS011;2028;51.346;12.396;2023-12-20T03:04:23;2.90;;;2.80;;
4027;SDS011;2028;51.346;12.396;2023-12-20T03:06:49;3.33;;;3.13;;
4027;SDS011;2028;51.346;12.396;2023-12-20T03:09:15;3.17;;;2.83;;
4027;SDS011;2028;51.346;12.396;2023-12-20T03:11:42;3.40;;;3.13;;
4027;SDS011;2028;51.346;12.396;2023-12-20T03:14:08;2.88;;;2.78;;
4027;SDS011;2028;51.346;12.396;2023-12-20T03:16:34;3.17;;;2.97;;
4027;SDS011;2028;51.346;12.396;2023-12-20T03:19:01;2.80;;;2.70;;
4027;SDS011;2028;51.346;12.396;2023-12-20T03:21:27;3.30;;;3.10;;
4027;SDS011;2028;51.346;12.396;2023-12-20T03:23:53;3.50;;;3.20;;
4027;SDS011;2028;51.346;12.396;2023-12-20T03:26:19;3.08;;;2.92;;
4027;SDS011;2028;51.346;12.396;2023-12-20T03:28:47;3.33;;;3.13;;
4027;SDS011;2028;51.346;12.396;2023-12-20T03:31:14;3.23;;;3.03;;
4027;SDS011;2028;51.346;12.396;2023-12-20T03:33:40;3.37;;;3.17;;
4027;SDS011;2028;51.346;12.396;2023-12-20T03:36:07;3.10;;;2.90;;
4027;SDS011;2028;51.346;12.396;2023-12-20T03:38:33;3.05;;;2.85;;
4027;SDS011;2028;51.346;12.396;2023-12-20T03:40:59;3.27;;;3.07;;
4027;SDS011;2028;51.346;12.396;2023-12-20T03:43:25;3.40;;;3.10;;
4027;SDS011;2028;51.346;12.396;2023-12-20T03:45:52;3.50;;;3.30;;
4027;SDS011;2028;51.346;12.396;2023-12-20T03:48:18;3.30;;;3.10;;
4027;SDS011;2028;51.346;12.396;2023-12-20T03:50:44;3.65;;;3.45;;
4027;SDS011;2028;51.346;12.396;2023-12-20T03:53:11;2.87;;;2.77;;
4027;SDS011;2028;51.346;12.396;2023-12-20T03:55:37;3.30;;;3.10;;
4027;SDS011;2028;51.346;12.396;2023-12-20T03:58:03;3.60;;;3.40;;
4027;SDS011;2028;51.346;12.396;2023-12-20T04:00:30;3.53;;;3.33;;
4027;SDS011;2028;51.346;12.396;2023-12-20T04:02:56;3.10;;;2.90;;
4027;SDS011;2028;51.346;12.396;2023-12-20T04:05:22;3.40;;;3.20;;
4027;SDS011;2028;51.346;12.396;2023-12-20T04:07:48;3.73;;;3.43;;
4027;SDS011;2028;51.346;12.396;2023-12-20T04:10:15;3.50;;;3.30;;
4027;SDS011;2028;51.346;12.396;2023-12-20T04:12:42;3.60;;;3.40;;
4027;SDS011;2028;51.346;12.396;2023-12-20T04:15:08;3.93;;;3.63;;
4027;SDS011;2028;51.346;12.396;2023-12-20T04:17:35;3.50;;;3.30;;
4027;SDS011;2028;51.346;12.396;2023-12-20T04:20:01;4.13;;;3.83;;
4027;SDS011;2028;51.346;12.396;2023-12-20T04:22:28;3.85;;;3.65;;
4027;SDS011;2028;51.346;12.396;2023-12-20T04:24:54;5.60;;;5.10;;
4027;SDS011;2028;51.346;12.396;2023-12-20T04:27:20;4.38;;;4.00;;
4027;SDS011;2028;51.346;12.396;2023-12-20T04:29:46;4.10;;;3.80;;
4027;SDS011;2028;51.346;12.396;2023-12-20T04:32:13;4.03;;;3.73;;
4027;SDS011;2028;51.346;12.396;2023-12-20T04:34:40;4.17;;;3.87;;
4027;SDS011;2028;51.346;12.396;2023-12-20T04:37:06;4.10;;;3.80;;
4027;SDS011;2028;51.346;12.396;2023-12-20T04:39:32;4.43;;;4.13;;
4027;SDS011;2028;51.346;12.396;2023-12-20T04:41:58;3.90;;;3.70;;
4027;SDS011;2028;51.346;12.396;2023-12-20T04:44:24;4.43;;;4.13;;
4027;SDS011;2028;51.346;12.396;2023-12-20T04:46:51;4.53;;;4.23;;
4027;SDS011;2028;51.346;12.396;2023-12-20T04:49:18;4.63;;;4.20;;
4027;SDS011;2028;51.346;12.396;2023-12-20T04:51:44;5.10;;;4.70;;
4027;SDS011;2028;51.346;12.396;2023-12-20T04:54:10;6.00;;;5.50;;
4027;SDS011;2028;51.346;12.396;2023-12-20T04:56:37;5.23;;;4.83;;
4027;SDS011;2028;51.346;12.396;2023-12-20T04:59:03;5.10;;;4.70;;
4027;SDS011;2028;51.346;12.396;2023-12-20T05:06:51;5.53;;;5.03;;
4027;SDS011;2028;51.346;12.396;2023-12-20T05:09:17;4.53;;;4.22;;
4027;SDS011;2028;51.346;12.396;2023-12-20T05:11:44;5.23;;;4.83;;
4027;SDS011;2028;51.346;12.396;2023-12-20T05:14:10;4.87;;;4.57;;
4027;SDS011;2028;51.346;12.396;2023-12-20T05:16:36;5.90;;;5.50;;
4027;SDS011;2028;51.346;12.396;2023-12-20T05:19:03;5.88;;;5.47;;
4027;SDS011;2028;51.346;12.396;2023-12-20T05:21:32;6.47;;;5.97;;
4027;SDS011;2028;51.346;12.396;2023-12-20T05:23:58;6.55;;;6.05;;
4027;SDS011;2028;51.346;12.396;2023-12-20T05:26:26;7.30;;;6.70;;
4027;SDS011;2028;51.346;12.396;2023-12-20T05:28:52;8.02;;;7.43;;
4027;SDS011;2028;51.346;12.396;2023-12-20T05:31:18;8.07;;;7.38;;
4027;SDS011;2028;51.346;12.396;2023-12-20T05:33:45;9.00;;;8.30;;
4027;SDS011;2028;51.346;12.396;2023-12-20T05:36:11;9.63;;;8.90;;
4027;SDS011;2028;51.346;12.396;2023-12-20T05:38:39;14.13;;;12.73;;
4027;SDS011;2028;51.346;12.396;2023-12-20T05:41:05;12.20;;;11.00;;
4027;SDS011;2028;51.346;12.396;2023-12-20T05:43:31;11.10;;;10.10;;
4027;SDS011;2028;51.346;12.396;2023-12-20T05:45:58;10.20;;;9.30;;
4027;SDS011;2028;51.346;12.396;2023-12-20T05:48:24;9.30;;;8.57;;
4027;SDS011;2028;51.346;12.396;2023-12-20T05:50:50;9.33;;;8.63;;
4027;SDS011;2028;51.346;12.396;2023-12-20T05:53:17;8.90;;;8.20;;
4027;SDS011;2028;51.346;12.396;2023-12-20T05:55:43;8.17;;;7.57;;
4027;SDS011;2028;51.346;12.396;2023-12-20T05:58:09;8.70;;;8.00;;
4027;SDS011;2028;51.346;12.396;2023-12-20T06:00:36;9.27;;;8.47;;
4027;SDS011;2028;51.346;12.396;2023-12-20T06:03:02;8.47;;;7.77;;
4027;SDS011;2028;51.346;12.396;2023-12-20T06:05:30;7.40;;;6.80;;
4027;SDS011;2028;51.346;12.396;2023-12-20T06:07:56;8.67;;;7.93;;
4027;SDS011;2028;51.346;12.396;2023-12-20T06:10:27;8.60;;;7.80;;
4027;SDS011;2028;51.346;12.396;2023-12-20T06:12:53;8.90;;;8.20;;
4027;SDS011;2028;51.346;12.396;2023-12-20T06:15:19;8.13;;;7.45;;
4027;SDS011;2028;51.346;12.396;2023-12-20T06:17:46;8.50;;;7.70;;
4027;SDS011;2028;51.346;12.396;2023-12-20T06:20:12;8.80;;;8.07;;
4027;SDS011;2028;51.346;12.396;2023-12-20T06:22:38;8.97;;;8.17;;
4027;SDS011;2028;51.346;12.396;2023-12-20T06:25:05;8.40;;;7.70;;
4027;SDS011;2028;51.346;12.396;2023-12-20T06:27:32;8.07;;;7.47;;
4027;SDS011;2028;51.346;12.396;2023-12-20T06:29:58;7.10;;;6.60;;
4027;SDS011;2028;51.346;12.396;2023-12-20T06:32:24;7.13;;;6.53;;
4027;SDS011;2028;51.346;12.396;2023-12-20T06:34:51;5.90;;;5.40;;
4027;SDS011;2028;51.346;12.396;2023-12-20T06:37:17;6.10;;;5.60;;
4027;SDS011;2028;51.346;12.396;2023-12-20T06:39:43;5.70;;;5.20;;
4027;SDS011;2028;51.346;12.396;2023-12-20T06:42:10;5.07;;;4.67;;
4027;SDS011;2028;51.346;12.396;2023-12-20T06:44:36;7.77;;;5.93;;
4027;SDS011;2028;51.346;12.396;2023-12-20T06:47:02;6.10;;;5.57;;
4027;SDS011;2028;51.346;12.396;2023-12-20T06:49:29;5.50;;;5.00;;
4027;SDS011;2028;51.346;12.396;2023-12-20T06:51:55;4.80;;;4.40;;
4027;SDS011;2028;51.346;12.396;2023-12-20T06:54:21;5.23;;;4.73;;
4027;SDS011;2028;51.346;12.396;2023-12-20T06:56:47;4.60;;;4.30;;
4027;SDS011;2028;51.346;12.396;2023-12-20T06:59:13;4.47;;;4.07;;
4027;SDS011;2028;51.346;12.396;2023-12-20T07:01:40;5.50;;;4.20;;
4027;SDS011;2028;51.346;12.396;2023-12-20T07:04:07;4.43;;;4.07;;
4027;SDS011;2028;51.346;12.396;2023-12-20T07:08:09;3.97;;;3.67;;
4027;SDS011;2028;51.346;12.396;2023-12-20T07:10:36;4.23;;;3.83;;
4027;SDS011;2028;51.346;12.396;2023-12-20T07:13:02;4.40;;;4.00;;
4027;SDS011;2028;51.346;12.396;2023-12-20T07:17:58;5.07;;;3.80;;
4027;SDS011;2028;51.346;12.396;2023-12-20T07:20:26;4.00;;;3.60;;
4027;SDS011;2028;51.346;12.396;2023-12-20T07:22:52;4.55;;;3.78;;
4027;SDS011;2028;51.346;12.396;2023-12-20T07:25:18;7.25;;;3.90;;
4027;SDS011;2028;51.346;12.396;2023-12-20T07:27:45;4.07;;;3.70;;
4027;SDS011;2028;51.346;12.396;2023-12-20T07:30:11;3.73;;;3.43;;
4027;SDS011;2028;51.346;12.396;2023-12-20T07:32:37;4.60;;;3.15;;
4027;SDS011;2028;51.346;12.396;2023-12-20T07:35:04;4.20;;;3.10;;
4027;SDS011;2028;51.346;12.396;2023-12-20T07:37:30;3.83;;;3.53;;
4027;SDS011;2028;51.346;12.396;2023-12-20T07:39:57;4.00;;;3.20;;
4027;SDS011;2028;51.346;12.396;2023-12-20T07:42:23;6.40;;;3.27;;
4027;SDS011;2028;51.346;12.396;2023-12-20T07:44:50;5.67;;;3.40;;
4027;SDS011;2028;51.346;12.396;2023-12-20T07:47:16;4.03;;;3.63;;
4027;SDS011;2028;51.346;12.396;2023-12-20T07:49:48;3.45;;;3.05;;
4027;SDS011;2028;51.346;12.396;2023-12-20T07:52:14;4.22;;;3.30;;
4027;SDS011;2028;51.346;12.396;2023-12-20T07:54:40;5.47;;;3.40;;
4027;SDS011;2028;51.346;12.396;2023-12-20T07:57:07;3.53;;;3.10;;
4027;SDS011;2028;51.346;12.396;2023-12-20T07:59:34;3.22;;;2.92;;
4027;SDS011;2028;51.346;12.396;2023-12-20T08:02:00;2.90;;;2.70;;
4027;SDS011;2028;51.346;12.396;2023-12-20T08:04:26;3.90;;;2.88;;
4027;SDS011;2028;51.346;12.396;2023-12-20T08:06:53;5.18;;;2.60;;
4027;SDS011;2028;51.346;12.396;2023-12-20T08:09:19;7.55;;;3.03;;
4027;SDS011;2028;51.346;12.396;2023-12-20T08:11:46;4.67;;;2.83;;
4027;SDS011;2028;51.346;12.396;2023-12-20T08:14:12;3.70;;;2.95;;
4027;SDS011;2028;51.346;12.396;2023-12-20T08:16:38;3.65;;;2.60;;
4027;SDS011;2028;51.346;12.396;2023-12-20T08:19:05;3.38;;;2.83;;
4027;SDS011;2028;51.346;12.396;2023-12-20T08:21:31;4.78;;;2.80;;
4027;SDS011;2028;51.346;12.396;2023-12-20T08:23:58;5.43;;;3.03;;
4027;SDS011;2028;51.346;12.396;2023-12-20T08:26:26;4.68;;;3.20;;
4027;SDS011;2028;51.346;12.396;2023-12-20T08:28:52;3.60;;;2.65;;
4027;SDS011;2028;51.346;12.396;2023-12-20T08:33:31;3.17;;;2.70;;
4027;SDS011;2028;51.346;12.396;2023-12-20T08:35:57;3.90;;;2.80;;
4027;SDS011;2028;51.346;12.396;2023-12-20T08:38:23;4.77;;;3.10;;
4027;SDS011;2028;51.346;12.396;2023-12-20T08:40:50;3.87;;;2.80;;
4027;SDS011;2028;51.346;12.396;2023-12-20T08:43:16;3.93;;;2.90;;
4027;SDS011;2028;51.346;12.396;2023-12-20T08:45:43;2.95;;;2.65;;
4027;SDS011;2028;51.346;12.396;2023-12-20T08:48:09;4.50;;;2.77;;
4027;SDS011;2028;51.346;12.396;2023-12-20T08:50:36;5.70;;;3.23;;
4027;SDS011;2028;51.346;12.396;2023-12-20T08:53:02;3.10;;;2.63;;
4027;SDS011;2028;51.346;12.396;2023-12-20T08:55:28;3.03;;;2.73;;
4027;SDS011;2028;51.346;12.396;2023-12-20T08:57:58;3.77;;;3.10;;
4027;SDS011;2028;51.346;12.396;2023-12-20T09:00:24;5.03;;;3.33;;
4027;SDS011;2028;51.346;12.396;2023-12-20T09:02:53;5.03;;;3.60;;
4027;SDS011;2028;51.346;12.396;2023-12-20T09:05:20;3.90;;;3.50;;
4027;SDS011;2028;51.346;12.396;2023-12-20T09:07:46;5.67;;;4.23;;
4027;SDS011;2028;51.346;12.396;2023-12-20T09:10:13;3.43;;;3.13;;
4027;SDS011;2028;51.346;12.396;2023-12-20T09:12:39;4.97;;;3.40;;
4027;SDS011;2028;51.346;12.396;2023-12-20T09:15:06;5.07;;;3.90;;
4027;SDS011;2028;51.346;12.396;2023-12-20T09:17:35;6.87;;;3.13;;
4027;SDS011;2028;51.346;12.396;2023-12-20T09:20:35;4.23;;;3.30;;
4027;SDS011;2028;51.346;12.396;2023-12-20T09:23:01;6.80;;;3.63;;
4027;SDS011;2028;51.346;12.396;2023-12-20T09:25:27;3.90;;;3.10;;
4027;SDS011;2028;51.346;12.396;2023-12-20T09:27:55;9.57;;;6.50;;
4027;SDS011;2028;51.346;12.396;2023-12-20T09:30:21;8.07;;;3.83;;
4027;SDS011;2028;51.346;12.396;2023-12-20T09:32:47;5.17;;;3.43;;
4027;SDS011;2028;51.346;12.396;2023-12-20T09:35:14;4.73;;;2.97;;
4027;SDS011;2028;51.346;12.396;2023-12-20T09:37:40;4.93;;;3.30;;
4027;SDS011;2028;51.346;12.396;2023-12-20T09:40:10;4.87;;;3.10;;
4027;SDS011;2028;51.346;12.396;2023-12-20T09:42:48;4.97;;;3.53;;
4027;SDS011;2028;51.346;12.396;2023-12-20T09:45:16;2.87;;;2.67;;
4027;SDS011;2028;51.346;12.396;2023-12-20T09:47:45;5.13;;;3.40;;
4027;SDS011;2028;51.346;12.396;2023-12-20T09:50:12;8.23;;;3.37;;
4027;SDS011;2028;51.346;12.396;2023-12-20T09:52:39;7.40;;;4.00;;
4027;SDS011;2028;51.346;12.396;2023-12-20T09:55:06;5.70;;;3.80;;
4027;SDS011;2028;51.346;12.396;2023-12-20T09:57:33;4.43;;;3.13;;
4027;SDS011;2028;51.346;12.396;2023-12-20T09:59:59;5.93;;;3.30;;
4027;SDS011;2028;51.346;12.396;2023-12-20T10:02:26;6.43;;;3.70;;
4027;SDS011;2028;51.346;12.396;2023-12-20T10:04:54;7.10;;;5.00;;
4027;SDS011;2028;51.346;12.396;2023-12-20T10:07:20;6.27;;;4.33;;
4027;SDS011;2028;51.346;12.396;2023-12-20T10:09:48;8.10;;;3.70;;
4027;SDS011;2028;51.346;12.396;2023-12-20T10:12:14;5.87;;;3.77;;
4027;SDS011;2028;51.346;12.396;2023-12-20T10:14:41;7.87;;;3.77;;
4027;SDS011;2028;51.346;12.396;2023-12-20T10:17:07;4.57;;;3.40;;
4027;SDS011;2028;51.346;12.396;2023-12-20T10:19:33;5.60;;;3.60;;
4027;SDS011;2028;51.346;12.396;2023-12-20T10:22:00;5.13;;;3.70;;
4027;SDS011;2028;51.346;12.396;2023-12-20T10:24:29;7.27;;;4.00;;
4027;SDS011;2028;51.346;12.396;2023-12-20T10:27:06;7.57;;;5.97;;
4027;SDS011;2028;51.346;12.396;2023-12-20T10:29:33;6.07;;;3.70;;
4027;SDS011;2028;51.346;12.396;2023-12-20T10:31:59;7.00;;;3.80;;
4027;SDS011;2028;51.346;12.396;2023-12-20T10:34:26;5.27;;;3.50;;
4027;SDS011;2028;51.346;12.396;2023-12-20T10:36:52;4.00;;;3.23;;
4027;SDS011;2028;51.346;12.396;2023-12-20T10:39:18;6.27;;;2.93;;
4027;SDS011;2028;51.346;12.396;2023-12-20T10:41:45;6.37;;;3.03;;
4027;SDS011;2028;51.346;12.396;2023-12-20T10:44:11;7.63;;;3.40;;
4027;SDS011;2028;51.346;12.396;2023-12-20T10:46:39;7.80;;;3.87;;
4027;SDS011;2028;51.346;12.396;2023-12-20T10:49:06;9.83;;;4.57;;
4027;SDS011;2028;51.346;12.396;2023-12-20T10:51:33;7.53;;;3.80;;
4027;SDS011;2028;51.346;12.396;2023-12-20T10:54:00;6.87;;;4.40;;
4027;SDS011;2028;51.346;12.396;2023-12-20T10:56:26;6.97;;;3.30;;
4027;SDS011;2028;51.346;12.396;2023-12-20T10:58:58;5.20;;;3.13;;
4027;SDS011;2028;51.346;12.396;2023-12-20T11:01:31;7.30;;;3.73;;
4027;SDS011;2028;51.346;12.396;2023-12-20T11:03:57;6.27;;;3.33;;
4027;SDS011;2028;51.346;12.396;2023-12-20T11:09:08;5.03;;;3.60;;
4027;SDS011;2028;51.346;12.396;2023-12-20T11:14:21;8.10;;;4.77;;
4027;SDS011;2028;51.346;12.396;2023-12-20T11:16:48;7.43;;;5.27;;
4027;SDS011;2028;51.346;12.396;2023-12-20T11:19:16;5.87;;;3.30;;
4027;SDS011;2028;51.346;12.396;2023-12-20T11:21:43;6.73;;;3.60;;
4027;SDS011;2028;51.346;12.396;2023-12-20T11:24:09;11.83;;;7.63;;
4027;SDS011;2028;51.346;12.396;2023-12-20T11:26:35;7.23;;;3.50;;
4027;SDS011;2028;51.346;12.396;2023-12-20T11:31:47;9.93;;;4.40;;
4027;SDS011;2028;51.346;12.396;2023-12-20T11:34:13;10.60;;;4.73;;
4027;SDS011;2028;51.346;12.396;2023-12-20T11:36:40;6.20;;;3.10;;
4027;SDS011;2028;51.346;12.396;2023-12-20T11:39:06;3.97;;;3.07;;
4027;SDS011;2028;51.346;12.396;2023-12-20T11:41:34;7.60;;;3.50;;
4027;SDS011;2028;51.346;12.396;2023-12-20T11:44:00;9.37;;;5.87;;
4027;SDS011;2028;51.346;12.396;2023-12-20T11:46:27;13.43;;;7.77;;
4027;SDS011;2028;51.346;12.396;2023-12-20T11:48:54;8.43;;;4.80;;
4027;SDS011;2028;51.346;12.396;2023-12-20T11:51:21;6.23;;;3.47;;
4027;SDS011;2028;51.346;12.396;2023-12-20T11:53:52;5.93;;;3.63;;
4027;SDS011;2028;51.346;12.396;2023-12-20T11:56:18;6.43;;;3.37;;
4027;SDS011;2028;51.346;12.396;2023-12-20T11:58:45;7.00;;;3.67;;
4027;SDS011;2028;51.346;12.396;2023-12-20T12:01:12;6.40;;;3.30;;
4027;SDS011;2028;51.346;12.396;2023-12-20T12:03:38;16.27;;;12.80;;
4027;SDS011;2028;51.346;12.396;2023-12-20T12:06:04;9.53;;;4.33;;
4027;SDS011;2028;51.346;12.396;2023-12-20T12:08:31;7.70;;;3.73;;
4027;SDS011;2028;51.346;12.396;2023-12-20T12:10:57;6.00;;;3.80;;
4027;SDS011;2028;51.346;12.396;2023-12-20T12:13:23;9.57;;;4.40;;
4027;SDS011;2028;51.346;12.396;2023-12-20T12:15:53;6.30;;;3.87;;
4027;SDS011;2028;51.346;12.396;2023-12-20T12:18:19;7.33;;;3.87;;
4027;SDS011;2028;51.346;12.396;2023-12-20T12:20:45;11.03;;;3.67;;
4027;SDS011;2028;51.346;12.396;2023-12-20T12:23:12;7.23;;;3.53;;
4027;SDS011;2028;51.346;12.396;2023-12-20T12:25:38;7.50;;;3.30;;
4027;SDS011;2028;51.346;12.396;2023-12-20T12:28:04;5.33;;;2.87;;
4027;SDS011;2028;51.346;12.396;2023-12-20T12:30:31;6.13;;;3.20;;
4027;SDS011;2028;51.346;12.396;2023-12-20T12:32:57;6.57;;;3.30;;
4027;SDS011;2028;51.346;12.396;2023-12-20T12:35:23;5.80;;;3.07;;
4027;SDS011;2028;51.346;12.396;2023-12-20T12:37:50;5.50;;;3.53;;
4027;SDS011;2028;51.346;12.396;2023-12-20T12:40:17;7.07;;;3.30;;
4027;SDS011;2028;51.346;12.396;2023-12-20T12:42:44;8.33;;;3.20;;
4027;SDS011;2028;51.346;12.396;2023-12-20T12:45:11;4.53;;;2.83;;
4027;SDS011;2028;51.346;12.396;2023-12-20T12:47:38;5.60;;;3.17;;
4027;SDS011;2028;51.346;12.396;2023-12-20T12:50:05;7.00;;;3.33;;
4027;SDS011;2028;51.346;12.396;2023-12-20T12:52:31;4.97;;;3.00;;
4027;SDS011;2028;51.346;12.396;2023-12-20T12:54:57;4.60;;;3.27;;
4027;SDS011;2028;51.346;12.396;2023-12-20T12:57:24;7.20;;;3.47;;
4027;SDS011;2028;51.346;12.396;2023-12-20T12:59:50;4.40;;;3.17;;
4027;SDS011;2028;51.346;12.396;2023-12-20T13:02:17;6.30;;;2.93;;
4027;SDS011;2028;51.346;12.396;2023-12-20T13:04:45;5.83;;;3.37;;
4027;SDS011;2028;51.346;12.396;2023-12-20T13:07:12;6.73;;;3.53;;
4027;SDS011;2028;51.346;12.396;2023-12-20T13:09:38;8.17;;;3.60;;
4027;SDS011;2028;51.346;12.396;2023-12-20T13:12:05;6.13;;;3.27;;
4027;SDS011;2028;51.346;12.396;2023-12-20T13:14:32;6.50;;;3.13;;
4027;SDS011;2028;51.346;12.396;2023-12-20T13:17:00;6.33;;;3.50;;
4027;SDS011;2028;51.346;12.396;2023-12-20T13:19:26;5.30;;;3.53;;
4027;SDS011;2028;51.346;12.396;2023-12-20T13:21:53;5.53;;;3.20;;
4027;SDS011;2028;51.346;12.396;2023-12-20T13:24:19;3.83;;;3.23;;
4027;SDS011;2028;51.346;12.396;2023-12-20T13:26:45;7.30;;;3.20;;
4027;SDS011;2028;51.346;12.396;2023-12-20T13:29:12;5.73;;;3.20;;
4027;SDS011;2028;51.346;12.396;2023-12-20T13:31:38;5.53;;;3.03;;
4027;SDS011;2028;51.346;12.396;2023-12-20T13:34:06;6.43;;;3.43;;
4027;SDS011;2028;51.346;12.396;2023-12-20T13:36:32;5.97;;;3.10;;
4027;SDS011;2028;51.346;12.396;2023-12-20T13:38:59;5.97;;;3.30;;
4027;SDS011;2028;51.346;12.396;2023-12-20T13:41:25;7.13;;;5.23;;
4027;SDS011;2028;51.346;12.396;2023-12-20T13:43:51;9.03;;;4.93;;
4027;SDS011;2028;51.346;12.396;2023-12-20T13:46:18;10.93;;;7.60;;
4027;SDS011;2028;51.346;12.396;2023-12-20T13:48:44;8.63;;;4.07;;
4027;SDS011;2028;51.346;12.396;2023-12-20T13:51:10;8.57;;;4.63;;
4027;SDS011;2028;51.346;12.396;2023-12-20T13:53:36;4.83;;;3.20;;
4027;SDS011;2028;51.346;12.396;2023-12-20T13:56:04;5.67;;;3.50;;
4027;SDS011;2028;51.346;12.396;2023-12-20T13:58:30;6.50;;;3.30;;
4027;SDS011;2028;51.346;12.396;2023-12-20T14:00:56;4.87;;;2.87;;
4027;SDS011;2028;51.346;12.396;2023-12-20T14:03:23;4.57;;;2.70;;
4027;SDS011;2028;51.346;12.396;2023-12-20T14:05:49;5.73;;;3.07;;
4027;SDS011;2028;51.346;12.396;2023-12-20T14:08:16;4.10;;;2.93;;
4027;SDS011;2028;51.346;12.396;2023-12-20T14:10:42;2.70;;;2.50;;
4027;SDS011;2028;51.346;12.396;2023-12-20T14:13:08;4.73;;;2.93;;
4027;SDS011;2028;51.346;12.396;2023-12-20T14:15:35;4.20;;;3.47;;
4027;SDS011;2028;51.346;12.396;2023-12-20T14:18:05;5.47;;;3.87;;
4027;SDS011;2028;51.346;12.396;2023-12-20T14:20:33;6.77;;;3.60;;
4027;SDS011;2028;51.346;12.396;2023-12-20T14:23:04;5.40;;;3.57;;
4027;SDS011;2028;51.346;12.396;2023-12-20T14:25:30;3.83;;;3.13;;
4027;SDS011;2028;51.346;12.396;2023-12-20T14:27:56;3.77;;;2.80;;
4027;SDS011;2028;51.346;12.396;2023-12-20T14:30:23;8.13;;;2.93;;
4027;SDS011;2028;51.346;12.396;2023-12-20T14:32:49;3.63;;;2.70;;
4027;SDS011;2028;51.346;12.396;2023-12-20T14:35:16;6.60;;;4.63;;
4027;SDS011;2028;51.346;12.396;2023-12-20T14:37:42;6.40;;;5.07;;
4027;SDS011;2028;51.346;12.396;2023-12-20T14:40:09;5.23;;;3.50;;
4027;SDS011;2028;51.346;12.396;2023-12-20T14:42:40;4.83;;;3.73;;
4027;SDS011;2028;51.346;12.396;2023-12-20T14:45:07;8.93;;;5.40;;
4027;SDS011;2028;51.346;12.396;2023-12-20T14:47:33;7.33;;;4.23;;
4027;SDS011;2028;51.346;12.396;2023-12-20T14:50:02;12.73;;;6.10;;
4027;SDS011;2028;51.346;12.396;2023-12-20T14:52:29;4.73;;;3.23;;
4027;SDS011;2028;51.346;12.396;2023-12-20T14:54:55;4.40;;;3.07;;
4027;SDS011;2028;51.346;12.396;2023-12-20T14:57:21;3.50;;;3.17;;
4027;SDS011;2028;51.346;12.396;2023-12-20T14:59:48;2.70;;;2.50;;
4027;SDS011;2028;51.346;12.396;2023-12-20T15:02:14;3.57;;;2.67;;
4027;SDS011;2028;51.346;12.396;2023-12-20T15:04:40;3.73;;;3.03;;
4027;SDS011;2028;51.346;12.396;2023-12-20T15:07:07;3.73;;;2.60;;
4027;SDS011;2028;51.346;12.396;2023-12-20T15:09:33;6.07;;;3.00;;
4027;SDS011;2028;51.346;12.396;2023-12-20T15:11:59;4.17;;;3.50;;
4027;SDS011;2028;51.346;12.396;2023-12-20T15:14:26;3.77;;;2.77;;
4027;SDS011;2028;51.346;12.396;2023-12-20T15:16:53;4.97;;;3.90;;